Newtown, CT

5:07 AM EDT on August 26, 2016 (GMT -0400)
Southern Newtown | | Change Station

Elev 465 ft 41.38 °N, 73.27 °W | Updated 18 seconds ago

Overcast
Overcast
70.5 °F
Feels Like 70.5 °F
N
0.0
Wind Variable Wind from North
Gusts 0.0 mph

Today
High -- | Low -- °F
--% Chance of Precip.
Yesterday
High -- | Low -- °F
Precip. -- in
Pressure 29.97 in
Visibility 10.0 miles
Clouds Overcast 6000 ft
Dew Point 69 °F
Humidity 94%
Rainfall 0.00 in
Snow Depth Not available.
6:13 AM 7:34 PM
Last Quarter, 36% visible
METAR KDXR 260853Z AUTO 23004KT 10SM OVC060 23/21 A2998 RMK AO2 SLP149 T02330211 58003
Pressure 29.97 in
Visibility 10.0 miles
Clouds Overcast 6000 ft
Dew Point 69 °F
Humidity 94%
Rainfall 0.00 in
Snow Depth Not available.
6:13 AM 7:34 PM
Last Quarter, 36% visible
METAR KDXR 260853Z AUTO 23004KT 10SM OVC060 23/21 A2998 RMK AO2 SLP149 T02330211 58003

10-Day Weather Forecast

Almanac

Astronomy

Aug. 26, 2016 Rise Set
Actual Time
Civil Twilight
Nautical Twilight
Astronomical Twilight
Moon
Length of Visible Light
Length of Day
Tomorrow will be .
, % of the Moon is Illuminated

Today's Extremes

State Highs State Lows

Community

WunderPhotos

Upload Photos

1,935,062 photos uploaded!

WunderBlog® & News

Nearby

Air Quality

  Air Quality AQ Index Pollutant
Not available.

Snow Depth

Station Depth Elevation

Earthquake Activity

City Distance Mag. Time & Date
Minimum magnitude displayed is 2.5.

Coastal Water Temperatures

Place Temperature

Stations

Nearby Weather Stations

Station Location Temp. Windchill Dew Point Humidity Wind Precip. Elev Updated Type
                   

Watches & Warnings

There are currently no watches in effect.